createdAt,value
2017-12-04T00:01:02.515Z,7.07
2017-12-04T00:03:29.190Z,6.53
2017-12-04T00:05:55.771Z,6.90
2017-12-04T00:08:22.349Z,6.07
2017-12-04T00:10:48.969Z,5.40
2017-12-04T00:13:15.534Z,6.10
2017-12-04T00:15:42.133Z,6.37
2017-12-04T00:18:08.742Z,6.93
2017-12-04T00:20:35.337Z,5.60
2017-12-04T00:23:02.266Z,6.40
2017-12-04T00:25:28.902Z,5.75
2017-12-04T00:27:55.442Z,6.07
2017-12-04T00:30:22.034Z,5.80
2017-12-04T00:32:48.978Z,5.75
2017-12-04T00:35:15.506Z,5.80
2017-12-04T00:37:42.060Z,5.40
2017-12-04T00:40:08.674Z,5.87
2017-12-04T00:42:35.220Z,5.62
2017-12-04T00:45:01.752Z,5.35
2017-12-04T00:47:28.426Z,5.45
2017-12-04T00:49:55.005Z,5.75
2017-12-04T00:52:21.541Z,6.00
2017-12-04T00:54:48.127Z,5.72
2017-12-04T00:57:15.051Z,6.55
2017-12-04T00:59:41.593Z,6.20
2017-12-04T01:02:08.231Z,5.32
2017-12-04T01:04:34.827Z,6.22
2017-12-04T01:07:01.751Z,5.93
2017-12-04T01:09:28.350Z,4.90
2017-12-04T01:11:54.902Z,5.62
2017-12-04T01:14:21.454Z,5.45
2017-12-04T01:16:48.053Z,6.15
2017-12-04T01:19:14.593Z,5.85
2017-12-04T01:21:41.201Z,5.80
2017-12-04T01:24:07.807Z,5.57
2017-12-04T01:26:34.729Z,5.72
2017-12-04T01:29:01.279Z,5.00
2017-12-04T01:31:27.894Z,4.90
2017-12-04T01:33:54.445Z,5.47
2017-12-04T01:36:20.989Z,4.82
2017-12-04T01:38:47.667Z,5.43
2017-12-04T01:41:14.581Z,5.18
2017-12-04T01:43:41.134Z,5.90
2017-12-04T01:46:07.757Z,5.28
2017-12-04T01:48:34.713Z,5.55
2017-12-04T01:51:01.669Z,5.47
2017-12-04T01:53:28.654Z,6.53
2017-12-04T01:55:55.205Z,6.37
2017-12-04T01:58:21.757Z,5.62
2017-12-04T02:00:48.526Z,6.25
2017-12-04T02:03:15.122Z,5.90
2017-12-04T02:05:42.070Z,6.55
2017-12-04T02:08:08.674Z,6.65
2017-12-04T02:10:35.259Z,6.35
2017-12-04T02:13:01.803Z,6.25
2017-12-04T02:15:28.386Z,7.07
2017-12-04T02:17:55.353Z,6.82
2017-12-04T02:20:21.958Z,7.00
2017-12-04T02:22:48.639Z,9.00
2017-12-04T02:25:15.223Z,7.00
2017-12-04T02:27:41.841Z,7.57
2017-12-04T02:30:08.591Z,7.70
2017-12-04T02:32:35.219Z,8.13
2017-12-04T02:37:35.383Z,7.45
2017-12-04T02:40:02.351Z,7.32
2017-12-04T02:42:29.340Z,7.32
2017-12-04T02:44:56.114Z,7.22
2017-12-04T02:47:22.768Z,7.75
2017-12-04T02:49:49.376Z,7.53
2017-12-04T02:52:16.186Z,7.72
2017-12-04T02:54:42.777Z,7.62
2017-12-04T02:57:09.393Z,6.85
2017-12-04T02:59:36.494Z,6.50
2017-12-04T03:02:03.149Z,7.37
2017-12-04T03:04:29.726Z,7.07
2017-12-04T03:06:56.322Z,7.20
2017-12-04T03:09:22.857Z,7.20
2017-12-04T03:11:49.769Z,7.40
2017-12-04T03:14:16.373Z,7.60
2017-12-04T03:16:42.993Z,7.80
2017-12-04T03:19:09.602Z,7.43
2017-12-04T03:21:36.274Z,8.60
2017-12-04T03:24:02.901Z,7.97
2017-12-04T03:26:29.529Z,7.53
2017-12-04T03:28:56.210Z,9.02
2017-12-04T03:31:22.767Z,8.05
2017-12-04T03:33:49.338Z,8.88
2017-12-04T03:36:15.977Z,7.62
2017-12-04T03:38:42.606Z,9.27
2017-12-04T03:41:09.250Z,9.63
2017-12-04T03:43:35.909Z,9.18
2017-12-04T03:46:02.525Z,8.80
2017-12-04T03:48:29.078Z,9.98
2017-12-04T03:50:55.673Z,8.95
2017-12-04T03:53:22.227Z,10.80
2017-12-04T03:55:49.141Z,9.35
2017-12-04T03:58:15.743Z,9.30
2017-12-04T04:00:42.681Z,8.52
2017-12-04T04:03:09.238Z,9.10
2017-12-04T04:05:36.289Z,8.30
2017-12-04T04:08:02.850Z,8.70
2017-12-04T04:10:29.803Z,8.35
2017-12-04T04:12:56.777Z,8.85
2017-12-04T04:15:23.338Z,8.48
2017-12-04T04:17:49.878Z,10.10
2017-12-04T04:20:16.559Z,8.73
2017-12-04T04:22:43.125Z,9.40
2017-12-04T04:25:09.718Z,8.95
2017-12-04T04:27:36.314Z,9.05
2017-12-04T04:30:02.893Z,10.35
2017-12-04T04:32:29.798Z,9.20
2017-12-04T04:34:56.398Z,8.98
2017-12-04T04:37:23.305Z,8.55
2017-12-04T04:39:49.841Z,8.85
2017-12-04T04:42:16.491Z,9.82
2017-12-04T04:44:43.054Z,8.73
2017-12-04T04:47:09.645Z,9.70
2017-12-04T04:49:36.710Z,8.30
2017-12-04T04:52:03.730Z,9.55
2017-12-04T04:54:30.393Z,10.10
2017-12-04T04:56:57.047Z,9.77
2017-12-04T04:59:23.654Z,8.95
2017-12-04T05:01:50.250Z,9.77
2017-12-04T05:04:17.316Z,10.25
2017-12-04T05:06:44.298Z,10.60
2017-12-04T05:09:10.881Z,9.85
2017-12-04T05:11:37.482Z,10.18
2017-12-04T05:14:04.466Z,8.68
2017-12-04T05:16:31.061Z,10.15
2017-12-04T05:18:57.720Z,9.82
2017-12-04T05:21:31.189Z,9.73
2017-12-04T05:23:57.781Z,8.88
2017-12-04T05:26:24.789Z,8.70
2017-12-04T05:28:51.393Z,9.45
2017-12-04T05:31:18.368Z,9.93
2017-12-04T05:33:44.920Z,10.25
2017-12-04T05:36:11.505Z,8.73
2017-12-04T05:38:38.244Z,9.05
2017-12-04T05:41:04.814Z,9.10
2017-12-04T05:43:31.356Z,9.77
2017-12-04T05:45:57.993Z,9.68
2017-12-04T05:48:24.598Z,10.55
2017-12-04T05:50:51.142Z,10.07
2017-12-04T05:53:17.754Z,10.80
2017-12-04T05:55:44.306Z,10.13
2017-12-04T05:58:10.898Z,10.18
2017-12-04T06:00:37.522Z,10.50
2017-12-04T06:03:04.425Z,11.15
2017-12-04T06:05:31.023Z,11.50
2017-12-04T06:07:57.643Z,10.43
2017-12-04T06:10:24.190Z,10.75
2017-12-04T06:12:50.730Z,11.18
2017-12-04T06:15:17.348Z,10.80
2017-12-04T06:17:43.929Z,12.00
2017-12-04T06:20:10.465Z,11.57
2017-12-04T06:22:37.109Z,9.95
2017-12-04T06:25:03.651Z,9.63
2017-12-04T06:27:30.198Z,10.55
2017-12-04T06:29:56.795Z,12.20
2017-12-04T06:32:23.339Z,10.52
2017-12-04T06:34:49.889Z,12.00
2017-12-04T06:37:16.482Z,10.85
2017-12-04T06:39:43.021Z,10.55
2017-12-04T06:42:09.646Z,10.98
2017-12-04T06:44:36.746Z,11.38
2017-12-04T06:47:03.326Z,12.75
2017-12-04T06:49:29.917Z,13.18
2017-12-04T06:51:56.565Z,10.88
2017-12-04T06:54:23.161Z,11.80
2017-12-04T06:56:49.723Z,11.77
2017-12-04T06:59:16.330Z,10.70
2017-12-04T07:01:42.858Z,11.35
2017-12-04T07:04:09.462Z,11.98
2017-12-04T07:06:36.091Z,11.25
2017-12-04T07:09:02.813Z,11.15
2017-12-04T07:11:29.357Z,10.75
2017-12-04T07:13:55.945Z,10.10
2017-12-04T07:16:22.501Z,9.93
2017-12-04T07:18:49.035Z,9.90
2017-12-04T07:21:15.666Z,10.48
2017-12-04T07:23:42.201Z,10.98
2017-12-04T07:26:08.758Z,11.18
2017-12-04T07:28:35.349Z,10.60
2017-12-04T07:31:01.899Z,10.98
2017-12-04T07:33:28.618Z,10.15
2017-12-04T07:35:55.253Z,10.50
2017-12-04T07:38:21.806Z,10.15
2017-12-04T07:40:48.430Z,9.00
2017-12-04T07:43:15.086Z,10.13
2017-12-04T07:45:41.614Z,8.70
2017-12-04T07:48:08.523Z,9.20
2017-12-04T07:50:35.121Z,10.00
2017-12-04T07:53:02.050Z,10.25
2017-12-04T07:55:28.991Z,9.10
2017-12-04T07:57:55.577Z,8.60
2017-12-04T08:00:22.514Z,9.73
2017-12-04T08:02:49.190Z,7.65
2017-12-04T08:05:15.959Z,8.68
2017-12-04T08:07:42.618Z,9.23
2017-12-04T08:10:09.641Z,9.48
2017-12-04T08:12:36.666Z,8.88
2017-12-04T08:15:03.289Z,8.98
2017-12-04T08:17:29.834Z,8.93
2017-12-04T08:19:56.500Z,9.40
2017-12-04T08:22:23.124Z,8.70
2017-12-04T08:24:49.719Z,8.88
2017-12-04T08:27:16.357Z,9.30
2017-12-04T08:29:42.942Z,9.25
2017-12-04T08:32:09.870Z,8.90
2017-12-04T08:34:36.509Z,8.85
2017-12-04T08:37:03.053Z,9.30
2017-12-04T08:39:29.655Z,8.85
2017-12-04T08:41:56.322Z,9.63
2017-12-04T08:44:22.914Z,10.05
2017-12-04T08:46:49.444Z,8.65
2017-12-04T08:49:16.034Z,8.82
2017-12-04T08:51:42.957Z,7.75
2017-12-04T08:54:09.498Z,8.85
2017-12-04T08:56:36.104Z,8.88
2017-12-04T08:59:02.642Z,7.18
2017-12-04T09:01:29.214Z,8.18
2017-12-04T09:03:55.818Z,8.13
2017-12-04T09:06:22.797Z,7.78
2017-12-04T09:08:49.385Z,9.00
2017-12-04T09:11:15.993Z,8.50
2017-12-04T09:13:42.550Z,8.00
2017-12-04T09:16:09.085Z,6.95
2017-12-04T09:18:35.748Z,7.50
2017-12-04T09:21:02.374Z,8.35
2017-12-04T09:23:28.990Z,8.07
2017-12-04T09:25:55.638Z,7.07
2017-12-04T09:28:22.207Z,7.05
2017-12-04T09:30:49.181Z,7.07
2017-12-04T09:33:15.900Z,6.75
2017-12-04T09:35:42.845Z,6.45
2017-12-04T09:38:09.434Z,7.75
2017-12-04T09:40:36.085Z,5.93
2017-12-04T09:43:02.662Z,6.18
2017-12-04T09:45:29.242Z,6.53
2017-12-04T09:47:55.858Z,5.95
2017-12-04T09:50:22.467Z,6.30
2017-12-04T09:52:49.409Z,6.18
2017-12-04T09:55:16.959Z,6.25
2017-12-04T09:57:43.575Z,6.05
2017-12-04T10:00:10.189Z,5.97
2017-12-04T10:02:37.197Z,6.72
2017-12-04T10:05:03.819Z,6.25
2017-12-04T10:07:30.438Z,6.32
2017-12-04T10:09:57.114Z,7.00
2017-12-04T10:12:23.690Z,5.68
2017-12-04T10:14:50.330Z,5.60
2017-12-04T10:17:16.973Z,5.87
2017-12-04T10:19:43.526Z,6.80
2017-12-04T10:22:10.071Z,5.50
2017-12-04T10:24:36.682Z,6.82
2017-12-04T10:27:03.646Z,6.93
2017-12-04T10:29:30.565Z,6.22
2017-12-04T10:31:57.186Z,6.95
2017-12-04T10:34:23.751Z,6.80
2017-12-04T10:36:50.314Z,7.00
2017-12-04T10:39:16.910Z,6.40
2017-12-04T10:41:43.458Z,7.28
2017-12-04T10:44:10.040Z,6.10
2017-12-04T10:46:36.685Z,6.20
2017-12-04T10:49:03.254Z,6.40
2017-12-04T10:51:29.826Z,6.62
2017-12-04T10:53:56.885Z,7.78
2017-12-04T10:56:23.866Z,6.82
2017-12-04T10:58:50.489Z,7.87
2017-12-04T11:01:17.586Z,6.28
2017-12-04T11:03:44.155Z,7.35
2017-12-04T11:06:10.747Z,6.80
2017-12-04T11:08:37.766Z,7.07
2017-12-04T11:11:04.360Z,7.60
2017-12-04T11:13:31.281Z,6.85
2017-12-04T11:15:57.933Z,6.60
2017-12-04T11:18:24.526Z,6.55
2017-12-04T11:20:51.141Z,6.25
2017-12-04T11:23:17.834Z,6.93
2017-12-04T11:25:44.465Z,7.45
2017-12-04T11:28:11.031Z,7.00
2017-12-04T11:30:37.762Z,5.97
2017-12-04T11:33:04.754Z,6.95
2017-12-04T11:35:31.366Z,6.32
2017-12-04T11:38:05.026Z,7.95
2017-12-04T11:40:31.638Z,9.30
2017-12-04T11:42:58.232Z,9.88
2017-12-04T11:45:25.327Z,8.15
2017-12-04T11:47:52.318Z,10.00
2017-12-04T11:50:18.929Z,6.85
2017-12-04T11:52:45.966Z,7.07
2017-12-04T11:55:12.640Z,7.07
2017-12-04T11:57:39.376Z,8.60
2017-12-04T12:00:06.397Z,6.57
2017-12-04T12:02:33.110Z,7.53
2017-12-04T12:04:59.741Z,7.22
2017-12-04T12:07:26.420Z,6.72
2017-12-04T12:09:53.014Z,7.30
2017-12-04T12:12:19.625Z,6.85
2017-12-04T12:14:46.243Z,7.20
2017-12-04T12:17:13.215Z,6.43
2017-12-04T12:19:39.804Z,4.87
2017-12-04T12:22:06.397Z,6.40
2017-12-04T12:24:33.322Z,6.32
2017-12-04T12:26:59.882Z,5.18
2017-12-04T12:29:26.878Z,5.53
2017-12-04T12:31:53.417Z,4.30
2017-12-04T12:34:19.948Z,5.25
2017-12-04T12:36:46.938Z,4.80
2017-12-04T12:39:13.478Z,4.72
2017-12-04T12:41:40.021Z,5.47
2017-12-04T12:44:06.621Z,5.22
2017-12-04T12:46:33.208Z,5.30
2017-12-04T12:49:00.134Z,4.65
2017-12-04T12:51:26.775Z,5.68
2017-12-04T12:53:53.366Z,5.90
2017-12-04T12:56:19.905Z,5.22
2017-12-04T12:58:46.523Z,5.22
2017-12-04T13:01:13.073Z,5.62
2017-12-04T13:03:39.615Z,6.03
2017-12-04T13:06:06.237Z,5.97
2017-12-04T13:08:32.786Z,5.87
2017-12-04T13:10:59.402Z,6.28
2017-12-04T13:13:26.366Z,5.25
2017-12-04T13:15:52.907Z,8.65
2017-12-04T13:18:21.326Z,7.05
2017-12-04T13:20:47.921Z,7.80
2017-12-04T13:23:14.825Z,6.60
2017-12-04T13:25:41.430Z,6.10
2017-12-04T13:28:08.566Z,12.25
2017-12-04T13:30:35.121Z,10.88
2017-12-04T13:33:14.008Z,8.32
2017-12-04T13:35:52.622Z,7.07
2017-12-04T13:38:19.237Z,8.10
2017-12-04T13:40:45.779Z,6.05
2017-12-04T13:43:12.338Z,7.22
2017-12-04T13:45:39.008Z,8.18
2017-12-04T13:48:06.493Z,7.65
2017-12-04T13:50:33.086Z,6.03
2017-12-04T13:52:59.746Z,5.60
2017-12-04T13:55:26.338Z,6.68
2017-12-04T13:57:52.938Z,6.32
2017-12-04T14:00:19.612Z,6.97
2017-12-04T14:02:46.590Z,7.15
2017-12-04T14:05:13.190Z,7.25
2017-12-04T14:07:39.925Z,7.12
2017-12-04T14:10:06.472Z,7.40
2017-12-04T14:12:33.050Z,6.72
2017-12-04T14:14:59.655Z,6.85
2017-12-04T14:17:26.258Z,7.75
2017-12-04T14:19:52.846Z,7.15
2017-12-04T14:22:19.535Z,7.78
2017-12-04T14:24:46.098Z,6.25
2017-12-04T14:27:12.642Z,6.75
2017-12-04T14:29:39.241Z,6.18
2017-12-04T14:32:05.869Z,7.40
2017-12-04T14:34:32.421Z,8.70
2017-12-04T14:36:59.015Z,8.30
2017-12-04T14:39:25.682Z,8.88
2017-12-04T14:41:52.235Z,9.65
2017-12-04T14:44:19.223Z,10.60
2017-12-04T14:46:45.818Z,8.77
2017-12-04T14:49:12.486Z,8.00
2017-12-04T14:51:39.228Z,8.07
2017-12-04T14:54:05.850Z,8.88
2017-12-04T14:56:34.752Z,8.10
2017-12-04T14:59:01.438Z,8.88
2017-12-04T15:01:28.206Z,8.80
2017-12-04T15:03:55.181Z,8.30
2017-12-04T15:06:21.866Z,8.60
2017-12-04T15:08:48.453Z,9.77
2017-12-04T15:11:15.514Z,9.13
2017-12-04T15:13:42.690Z,8.50
2017-12-04T15:16:09.701Z,8.50
2017-12-04T15:18:36.326Z,9.52
2017-12-04T15:21:02.990Z,9.73
2017-12-04T15:23:29.638Z,9.77
2017-12-04T15:25:56.258Z,10.43
2017-12-04T15:28:23.074Z,9.52
2017-12-04T15:30:49.685Z,10.05
2017-12-04T15:33:16.298Z,8.18
2017-12-04T15:35:42.950Z,8.88
2017-12-04T15:38:09.577Z,9.25
2017-12-04T15:40:36.191Z,9.60
2017-12-04T15:43:02.841Z,8.75
2017-12-04T15:45:29.475Z,11.05
2017-12-04T15:47:56.076Z,8.88
2017-12-04T15:50:22.827Z,10.13
2017-12-04T15:52:49.781Z,11.38
2017-12-04T15:55:16.390Z,10.93
2017-12-04T15:57:43.097Z,9.70
2017-12-04T16:00:10.072Z,8.82
2017-12-04T16:02:36.690Z,9.55
2017-12-04T16:05:03.739Z,10.57
2017-12-04T16:07:30.318Z,10.00
2017-12-04T16:09:56.902Z,9.73
2017-12-04T16:12:23.533Z,8.95
2017-12-04T16:14:50.106Z,9.75
2017-12-04T16:17:16.697Z,9.60
2017-12-04T16:19:43.746Z,9.25
2017-12-04T16:22:10.658Z,9.30
2017-12-04T16:24:37.237Z,8.73
2017-12-04T16:27:03.891Z,9.02
2017-12-04T16:29:30.490Z,10.45
2017-12-04T16:31:57.250Z,9.20
2017-12-04T16:34:23.958Z,10.02
2017-12-04T16:36:50.909Z,10.50
2017-12-04T16:39:17.838Z,9.20
2017-12-04T16:41:44.529Z,9.18
2017-12-04T16:44:11.121Z,10.30
2017-12-04T16:46:37.674Z,11.45
2017-12-04T16:49:04.370Z,9.13
2017-12-04T16:51:31.326Z,10.50
2017-12-04T16:53:58.250Z,9.80
2017-12-04T16:56:24.902Z,9.48
2017-12-04T16:58:51.485Z,10.80
2017-12-04T17:01:18.158Z,9.80
2017-12-04T17:03:44.814Z,10.20
2017-12-04T17:06:11.422Z,9.32
2017-12-04T17:08:38.410Z,8.88
2017-12-04T17:11:05.041Z,9.73
2017-12-04T17:13:32.293Z,9.35
2017-12-04T17:16:00.194Z,8.70
2017-12-04T17:18:26.802Z,9.85
2017-12-04T17:20:53.386Z,9.52
2017-12-04T17:23:19.958Z,10.35
2017-12-04T17:25:46.606Z,9.15
2017-12-04T17:28:13.201Z,8.68
2017-12-04T17:30:39.867Z,10.05
2017-12-04T17:33:06.567Z,10.32
2017-12-04T17:35:33.185Z,9.68
2017-12-04T17:37:59.802Z,9.20
2017-12-04T17:40:26.814Z,8.90
2017-12-04T17:42:53.463Z,9.35
2017-12-04T17:45:20.026Z,10.43
2017-12-04T17:47:46.776Z,8.30
2017-12-04T17:50:13.374Z,9.50
2017-12-04T17:52:39.994Z,7.00
2017-12-04T17:55:06.633Z,8.80
2017-12-04T17:57:33.211Z,8.95
2017-12-04T18:00:00.162Z,8.90
2017-12-04T18:02:27.323Z,8.82
2017-12-04T18:04:54.314Z,10.15
2017-12-04T18:07:20.990Z,8.30
2017-12-04T18:09:47.671Z,9.70
2017-12-04T18:12:14.359Z,8.40
2017-12-04T18:14:40.966Z,8.68
2017-12-04T18:17:07.617Z,9.00
2017-12-04T18:19:34.254Z,9.88
2017-12-04T18:22:00.894Z,9.25
2017-12-04T18:24:27.595Z,10.65
2017-12-04T18:26:54.207Z,8.68
2017-12-04T18:29:20.831Z,9.88
2017-12-04T18:31:47.675Z,9.98
2017-12-04T18:34:14.405Z,10.05
2017-12-04T18:36:41.017Z,8.80
2017-12-04T18:39:07.724Z,9.82
2017-12-04T18:41:34.346Z,9.57
2017-12-04T18:44:00.958Z,9.07
2017-12-04T18:46:27.642Z,9.77
2017-12-04T18:48:54.645Z,9.25
2017-12-04T18:51:21.277Z,10.38
2017-12-04T18:53:47.950Z,8.70
2017-12-04T18:56:14.586Z,10.63
2017-12-04T18:58:41.190Z,9.80
2017-12-04T19:01:08.282Z,11.45
2017-12-04T19:03:34.913Z,8.77
2017-12-04T19:06:01.530Z,10.07
2017-12-04T19:08:28.222Z,10.25
2017-12-04T19:10:54.846Z,10.65
2017-12-04T19:13:21.874Z,10.85
2017-12-04T19:15:48.567Z,11.05
2017-12-04T19:18:15.190Z,10.52
2017-12-04T19:20:41.841Z,11.25
2017-12-04T19:23:08.881Z,10.73
2017-12-04T19:25:35.483Z,10.73
2017-12-04T19:28:02.099Z,9.85
2017-12-04T19:30:29.154Z,10.95
2017-12-04T19:32:55.766Z,11.38
2017-12-04T19:35:22.401Z,10.43
2017-12-04T19:37:49.179Z,11.10
2017-12-04T19:40:16.639Z,10.52
2017-12-04T19:42:44.255Z,9.50
2017-12-04T19:45:11.310Z,10.50
2017-12-04T19:47:38.321Z,11.43
2017-12-04T19:50:04.969Z,9.75
2017-12-04T19:52:31.670Z,10.05
2017-12-04T19:54:58.671Z,12.63
2017-12-04T19:57:25.305Z,10.82
2017-12-04T19:59:52.041Z,10.88
2017-12-04T20:02:18.685Z,10.52
2017-12-04T20:04:45.866Z,10.45
2017-12-04T20:07:14.254Z,9.50
2017-12-04T20:09:40.951Z,10.68
2017-12-04T20:12:07.787Z,10.88
2017-12-04T20:14:35.449Z,10.23
2017-12-04T20:17:02.137Z,10.98
2017-12-04T20:19:28.766Z,10.82
2017-12-04T20:21:55.862Z,11.30
2017-12-04T20:24:23.989Z,11.77
2017-12-04T20:26:51.289Z,10.73
2017-12-04T20:29:18.363Z,13.38
2017-12-04T20:31:45.667Z,11.80
2017-12-04T20:34:12.531Z,12.45
2017-12-04T20:36:39.546Z,12.23
2017-12-04T20:39:06.839Z,12.98
2017-12-04T20:41:33.736Z,13.93
2017-12-04T20:44:00.705Z,11.70
2017-12-04T20:46:28.544Z,13.45
2017-12-04T20:48:55.417Z,13.65
2017-12-04T20:51:22.391Z,13.62
2017-12-04T20:53:49.314Z,14.70
2017-12-04T20:56:16.182Z,12.43
2017-12-04T20:58:43.209Z,15.50
2017-12-04T21:01:10.094Z,13.75
2017-12-04T21:03:37.030Z,14.20
2017-12-04T21:06:04.101Z,13.70
2017-12-04T21:08:43.062Z,15.07
2017-12-04T21:11:22.113Z,14.23
2017-12-04T21:14:00.900Z,15.43
2017-12-04T21:16:50.307Z,14.23
2017-12-04T21:19:18.106Z,12.95
2017-12-04T21:21:45.013Z,13.68
2017-12-04T21:24:11.996Z,12.95
2017-12-04T21:26:38.935Z,12.45
2017-12-04T21:29:05.828Z,13.00
2017-12-04T21:31:32.735Z,12.20
2017-12-04T21:33:59.662Z,13.30
2017-12-04T21:36:26.868Z,11.90
2017-12-04T21:38:53.834Z,12.23
2017-12-04T21:41:20.712Z,9.93
2017-12-04T21:43:47.606Z,11.15
2017-12-04T21:46:14.523Z,10.75
2017-12-04T21:48:41.510Z,9.90
2017-12-04T21:51:08.861Z,12.30
2017-12-04T21:53:35.882Z,14.30
2017-12-04T21:56:02.743Z,13.52
2017-12-04T21:58:29.615Z,12.07
2017-12-04T22:00:56.538Z,12.95
2017-12-04T22:03:23.422Z,14.13
2017-12-04T22:05:50.333Z,14.02
2017-12-04T22:08:17.273Z,13.55
2017-12-04T22:10:44.199Z,14.52
2017-12-04T22:13:11.157Z,15.55
2017-12-04T22:15:38.493Z,15.20
2017-12-04T22:18:05.478Z,13.88
2017-12-04T22:20:32.748Z,14.63
2017-12-04T22:22:59.711Z,13.27
2017-12-04T22:25:26.979Z,12.82
2017-12-04T22:27:54.263Z,14.15
2017-12-04T22:30:21.264Z,15.60
2017-12-04T22:32:48.158Z,13.48
2017-12-04T22:35:15.446Z,15.05
2017-12-04T22:37:42.417Z,14.25
2017-12-04T22:40:09.313Z,13.50
2017-12-04T22:42:36.192Z,15.07
2017-12-04T22:45:03.630Z,15.18
2017-12-04T22:47:31.963Z,14.15
2017-12-04T22:49:59.018Z,12.10
2017-12-04T22:52:26.704Z,14.68
2017-12-04T22:54:54.355Z,14.20
2017-12-04T22:57:22.432Z,13.45
2017-12-04T22:59:50.187Z,14.80
2017-12-04T23:02:17.150Z,13.70
2017-12-04T23:04:44.028Z,13.60
2017-12-04T23:07:11.130Z,14.18
2017-12-04T23:09:37.738Z,14.77
2017-12-04T23:12:04.370Z,13.10
2017-12-04T23:14:31.426Z,14.27
2017-12-04T23:16:58.347Z,13.75
2017-12-04T23:19:24.970Z,14.57
2017-12-04T23:21:51.690Z,15.40
2017-12-04T23:24:18.722Z,15.77
2017-12-04T23:26:45.369Z,14.13
2017-12-04T23:29:12.005Z,12.77
2017-12-04T23:31:38.666Z,13.13
2017-12-04T23:34:05.333Z,13.50
2017-12-04T23:36:32.061Z,13.02
2017-12-04T23:38:58.637Z,12.77
2017-12-04T23:41:25.212Z,11.63
2017-12-04T23:43:51.846Z,13.98
2017-12-04T23:46:18.758Z,12.30
2017-12-04T23:48:45.322Z,12.32
2017-12-04T23:51:11.979Z,12.18
2017-12-04T23:53:38.529Z,12.25
2017-12-04T23:56:05.094Z,12.68
2017-12-04T23:58:32.090Z,12.70
